Rosamond, Illinois
Current Conditions -  °F | °C
As of 7:35 PM on Friday 21 Nov 2014 (Local Time) from KTAZ Reporting Station
Overcast Overcast  
Wind Chill: 24°   Ceiling: 2900
Heat Index: 34°   Visibility: 10mi
Dew Point: 19°   Wind: 14mph
Humidity: 56%   Direction: 150°SSE
Pressure: 30.28"   Gusts: 18mph
Location:  39.38°N, 89.16°W
Report Text: KTAZ 220135Z AUTO 15012G16KT 10SM SCT021 OVC029 01/M07 A3028 RMK AO2
Loading
Personal Weather Stations






























Interactive Weather Map New forecast layout! Learn more

10-Day Weather Forecast

Advertisements
Track Severe Weather on mobile